Time;durP1;ratioP1;P1;durP2;ratioP2;P2;SDS_P1;SDS_P2;PMS_P1;PMS_P2;Temp;Humidity;BMP_temperature;BMP_pressure;BME280_temperature;BME280_humidity;BME280_pressure;Samples;Min_cycle;Max_cycle;Signal;HPM_P1;HPM_P2
2021/07/11 00:00:14;;;;;;;3.47;2.15;;;;;;;;;;5026276;28;20042;-77
2021/07/11 00:02:41;;;;;;;3.83;2.10;;;;;;;;;;5042841;28;20046;-77
2021/07/11 00:05:11;;;;;;;3.35;2.00;;;;;;;;;;5041042;28;20412;-78
2021/07/11 00:07:37;;;;;;;4.25;2.20;;;;;;;;;;5043244;28;20085;-78
2021/07/11 00:10:05;;;;;;;3.90;2.47;;;;;;;;;;5043105;28;20041;-78
2021/07/11 00:12:32;;;;;;;2.85;1.83;;;;;;;;;;5028726;28;20396;-78
2021/07/11 00:14:58;;;;;;;4.00;2.55;;;;;;;;;;5025054;28;20045;-77
2021/07/11 00:17:26;;;;;;;4.93;3.67;;;;;;;;;;5026156;28;20053;-78
2021/07/11 00:19:55;;;;;;;5.22;3.03;;;;;;;;;;5023075;28;20521;-79
2021/07/11 00:22:21;;;;;;;4.35;2.97;;;;;;;;;;5024404;28;20081;-78
2021/07/11 00:24:50;;;;;;;4.50;3.05;;;;;;;;;;5023357;28;20045;-78
2021/07/11 00:27:17;;;;;;;3.00;2.05;;;;;;;;;;5022562;28;20060;-77
2021/07/11 00:29:43;;;;;;;4.55;1.98;;;;;;;;;;5022432;28;20045;-78
2021/07/11 00:32:10;;;;;;;3.80;2.03;;;;;;;;;;5023024;28;20388;-78
2021/07/11 00:34:38;;;;;;;4.90;2.40;;;;;;;;;;5022909;28;20392;-77
2021/07/11 00:37:05;;;;;;;5.18;2.00;;;;;;;;;;5021446;28;20057;-77
2021/07/11 00:39:32;;;;;;;2.75;2.00;;;;;;;;;;5020845;28;20050;-77
2021/07/11 00:41:59;;;;;;;4.18;2.13;;;;;;;;;;5021865;28;20050;-78
2021/07/11 00:44:26;;;;;;;4.00;1.77;;;;;;;;;;5021681;28;20042;-78
2021/07/11 00:46:53;;;;;;;3.17;1.90;;;;;;;;;;5021829;28;20057;-78
2021/07/11 00:49:20;;;;;;;2.90;1.65;;;;;;;;;;5012472;28;20074;-78
2021/07/11 00:51:48;;;;;;;3.42;1.83;;;;;;;;;;5012325;28;20046;-77
2021/07/11 00:54:15;;;;;;;2.90;1.85;;;;;;;;;;5012158;28;20131;-77
2021/07/11 00:56:44;;;;;;;3.10;1.70;;;;;;;;;;5011335;28;20125;-77
2021/07/11 00:59:11;;;;;;;4.47;1.85;;;;;;;;;;5012026;28;20125;-77
2021/07/11 01:01:39;;;;;;;3.28;2.08;;;;;;;;;;5027258;28;20133;-77
2021/07/11 01:04:11;;;;;;;3.13;1.60;;;;;;;;;;5035768;28;20084;-77
2021/07/11 01:06:40;;;;;;;2.65;1.55;;;;;;;;;;5034714;28;20558;-78
2021/07/11 01:09:12;;;;;;;3.60;1.60;;;;;;;;;;5035530;28;20083;-78
2021/07/11 01:11:48;;;;;;;3.08;1.88;;;;;;;;;;5028439;28;20499;-77
2021/07/11 01:14:17;;;;;;;4.55;2.00;;;;;;;;;;5015617;28;20089;-77
2021/07/11 01:16:48;;;;;;;2.83;1.55;;;;;;;;;;5015047;28;20088;-78
2021/07/11 01:19:35;;;;;;;2.65;1.70;;;;;;;;;;5015687;28;20085;-78
2021/07/11 01:22:07;;;;;;;4.63;2.08;;;;;;;;;;5016145;28;20077;-78
2021/07/11 01:24:39;;;;;;;3.90;1.95;;;;;;;;;;5015573;28;20077;-78
2021/07/11 01:27:08;;;;;;;2.65;1.58;;;;;;;;;;5015956;28;20483;-77
2021/07/11 01:29:35;;;;;;;2.78;1.63;;;;;;;;;;5016115;28;20100;-78
2021/07/11 01:32:03;;;;;;;3.50;1.90;;;;;;;;;;5016148;28;20045;-78
2021/07/11 01:34:30;;;;;;;3.40;1.92;;;;;;;;;;5017011;28;20475;-77
2021/07/11 01:36:57;;;;;;;2.75;1.45;;;;;;;;;;5016320;28;20080;-78
2021/07/11 01:39:26;;;;;;;3.70;2.08;;;;;;;;;;5018131;28;20103;-77
2021/07/11 01:41:54;;;;;;;4.47;2.10;;;;;;;;;;5017054;28;20085;-77
2021/07/11 01:44:23;;;;;;;2.58;1.67;;;;;;;;;;5019161;28;20496;-77
2021/07/11 01:46:50;;;;;;;3.88;2.10;;;;;;;;;;5017937;28;20049;-78
2021/07/11 01:49:17;;;;;;;3.55;2.03;;;;;;;;;;5018353;28;20077;-78
2021/07/11 01:51:45;;;;;;;3.33;1.85;;;;;;;;;;5016658;28;20046;-78
2021/07/11 01:54:12;;;;;;;3.50;1.90;;;;;;;;;;5017143;28;20052;-78
2021/07/11 01:56:40;;;;;;;2.65;1.60;;;;;;;;;;5015720;28;20305;-78
2021/07/11 01:59:08;;;;;;;3.08;1.88;;;;;;;;;;5014815;28;20049;-78
2021/07/11 02:01:36;;;;;;;3.40;2.03;;;;;;;;;;5028774;28;20049;-77
2021/07/11 02:04:03;;;;;;;4.47;1.85;;;;;;;;;;5034649;28;20139;-78
2021/07/11 02:06:30;;;;;;;2.50;1.50;;;;;;;;;;5033739;28;20081;-77
2021/07/11 02:08:57;;;;;;;2.30;1.40;;;;;;;;;;5034650;28;20085;-77
2021/07/11 02:11:26;;;;;;;2.90;1.70;;;;;;;;;;5029386;28;20073;-77
2021/07/11 02:13:59;;;;;;;2.90;1.70;;;;;;;;;;5014562;28;20141;-77
2021/07/11 02:16:31;;;;;;;2.75;1.30;;;;;;;;;;5015044;28;20100;-77
2021/07/11 02:19:01;;;;;;;2.47;1.25;;;;;;;;;;5015724;28;20498;-77
2021/07/11 02:21:28;;;;;;;2.63;1.30;;;;;;;;;;5028028;28;20513;-77
2021/07/11 02:23:56;;;;;;;2.95;1.10;;;;;;;;;;5020877;28;20491;-77
2021/07/11 02:26:24;;;;;;;2.03;1.08;;;;;;;;;;5016013;28;20082;-76
2021/07/11 02:28:52;;;;;;;2.65;1.30;;;;;;;;;;5016969;28;20161;-77
2021/07/11 02:31:20;;;;;;;2.45;1.33;;;;;;;;;;5016661;28;20129;-77
2021/07/11 02:33:47;;;;;;;2.97;1.20;;;;;;;;;;5016882;28;20079;-77
2021/07/11 02:36:19;;;;;;;2.03;1.23;;;;;;;;;;5041638;23;20084;-79
2021/07/11 02:38:50;;;;;;;1.67;1.10;;;;;;;;;;5034995;28;20049;-77
2021/07/11 02:41:19;;;;;;;2.25;1.27;;;;;;;;;;5036375;28;20050;-76
2021/07/11 02:43:48;;;;;;;2.22;1.20;;;;;;;;;;5036175;28;20057;-77
2021/07/11 02:46:18;;;;;;;2.30;1.10;;;;;;;;;;5035100;28;20046;-77
2021/07/11 02:48:45;;;;;;;;;;;;;;;;;;5035997;28;20056;-77
2021/07/11 02:51:15;;;;;;;1.92;1.20;;;;;;;;;;5037920;28;19985;-78
2021/07/11 02:53:45;;;;;;;3.53;1.27;;;;;;;;;;5038389;28;20042;-77
2021/07/11 02:56:15;;;;;;;2.17;0.85;;;;;;;;;;5036799;28;20556;-77
2021/07/11 02:58:44;;;;;;;1.88;0.90;;;;;;;;;;5037249;28;20084;-77
2021/07/11 03:01:11;;;;;;;2.42;1.00;;;;;;;;;;5037270;28;20080;-77
2021/07/11 03:03:38;;;;;;;1.60;0.90;;;;;;;;;;5037561;28;20060;-77
2021/07/11 03:06:05;;;;;;;2.13;0.90;;;;;;;;;;5037232;28;20491;-77
2021/07/11 03:08:32;;;;;;;1.60;0.80;;;;;;;;;;5036845;28;20061;-78
2021/07/11 03:11:02;;;;;;;1.90;0.82;;;;;;;;;;5036184;28;20077;-78
2021/07/11 03:13:31;;;;;;;1.48;0.70;;;;;;;;;;5035946;28;20461;-78
2021/07/11 03:15:59;;;;;;;1.10;0.70;;;;;;;;;;5035262;28;20050;-77
2021/07/11 03:18:28;;;;;;;1.25;0.70;;;;;;;;;;5035861;28;20042;-78
2021/07/11 03:20:56;;;;;;;1.10;0.70;;;;;;;;;;5035227;28;20510;-77
2021/07/11 03:23:23;;;;;;;1.02;0.60;;;;;;;;;;5033937;28;20084;-77
2021/07/11 03:25:51;;;;;;;2.17;0.73;;;;;;;;;;5032746;28;20081;-78
2021/07/11 03:28:19;;;;;;;1.25;0.50;;;;;;;;;;5033617;28;20081;-77
2021/07/11 03:30:49;;;;;;;1.77;0.98;;;;;;;;;;5034005;28;20088;-78
2021/07/11 03:33:18;;;;;;;1.33;0.50;;;;;;;;;;5036524;28;20049;-78
2021/07/11 03:35:49;;;;;;;1.25;0.50;;;;;;;;;;5035250;28;20088;-78
2021/07/11 03:38:20;;;;;;;2.08;0.73;;;;;;;;;;5036542;28;20506;-77
2021/07/11 03:40:51;;;;;;;0.80;0.50;;;;;;;;;;5036444;28;20073;-78
2021/07/11 03:43:23;;;;;;;0.70;0.40;;;;;;;;;;5036265;28;20148;-77
2021/07/11 03:45:53;;;;;;;0.95;0.55;;;;;;;;;;5034961;28;20060;-78
2021/07/11 03:48:25;;;;;;;1.73;0.57;;;;;;;;;;5036592;28;20049;-77
2021/07/11 03:50:55;;;;;;;1.35;0.60;;;;;;;;;;5036636;28;20053;-78
2021/07/11 03:53:25;;;;;;;1.67;0.70;;;;;;;;;;5036751;28;20041;-78
2021/07/11 03:55:54;;;;;;;1.42;0.55;;;;;;;;;;5035626;28;20069;-78
2021/07/11 03:58:23;;;;;;;1.48;0.50;;;;;;;;;;5037983;28;20053;-79
2021/07/11 04:00:52;;;;;;;1.50;0.60;;;;;;;;;;5030322;28;20103;-78
2021/07/11 04:03:21;;;;;;;2.28;0.65;;;;;;;;;;5024151;28;20106;-78
2021/07/11 04:05:48;;;;;;;1.00;0.57;;;;;;;;;;5037652;28;20045;-78
2021/07/11 04:08:17;;;;;;;1.27;0.50;;;;;;;;;;5037959;28;20026;-79
2021/07/11 04:10:44;;;;;;;1.02;0.45;;;;;;;;;;5037822;28;20049;-78
2021/07/11 04:13:13;;;;;;;1.00;0.50;;;;;;;;;;5030420;28;20050;-78
2021/07/11 04:15:44;;;;;;;0.80;0.60;;;;;;;;;;5017656;28;20081;-78
2021/07/11 04:18:14;;;;;;;1.13;0.63;;;;;;;;;;5017801;28;20073;-78
2021/07/11 04:20:42;;;;;;;1.42;0.70;;;;;;;;;;5017507;28;20487;-78
2021/07/11 04:23:10;;;;;;;1.85;0.93;;;;;;;;;;5016389;28;20046;-78
2021/07/11 04:25:40;;;;;;;1.35;0.60;;;;;;;;;;5015502;28;20103;-79
2021/07/11 04:28:07;;;;;;;;;;;;;;;;;;5016567;28;20053;-79
2021/07/11 04:30:35;;;;;;;2.10;0.70;;;;;;;;;;5017806;28;19980;-78
2021/07/11 04:33:04;;;;;;;1.45;0.65;;;;;;;;;;5013825;28;20042;-78
2021/07/11 04:35:31;;;;;;;2.72;0.68;;;;;;;;;;5012177;28;20403;-78
2021/07/11 04:37:58;;;;;;;1.50;0.73;;;;;;;;;;5015981;28;20073;-78
2021/07/11 04:40:24;;;;;;;1.33;0.63;;;;;;;;;;5019745;28;20042;-78
2021/07/11 04:42:51;;;;;;;2.33;0.80;;;;;;;;;;5022080;28;20050;-79
2021/07/11 04:45:19;;;;;;;1.98;0.95;;;;;;;;;;5019891;28;20045;-79
2021/07/11 04:47:45;;;;;;;2.13;0.70;;;;;;;;;;5023944;28;20089;-79
2021/07/11 04:50:14;;;;;;;1.67;0.75;;;;;;;;;;5020858;28;20086;-78
2021/07/11 04:52:42;;;;;;;2.67;0.88;;;;;;;;;;5019740;28;20564;-79
2021/07/11 04:55:11;;;;;;;2.30;0.90;;;;;;;;;;5017897;28;20042;-78
2021/07/11 04:57:38;;;;;;;1.52;1.00;;;;;;;;;;5016563;28;20077;-78
2021/07/11 05:00:08;;;;;;;1.45;0.70;;;;;;;;;;5018473;28;20161;-78
2021/07/11 05:02:35;;;;;;;2.10;0.70;;;;;;;;;;5036210;28;20089;-78
2021/07/11 05:05:02;;;;;;;2.55;0.73;;;;;;;;;;5035139;28;20042;-78
2021/07/11 05:07:30;;;;;;;1.25;0.70;;;;;;;;;;5035600;28;20529;-79
2021/07/11 05:09:57;;;;;;;2.25;0.68;;;;;;;;;;5035529;28;20107;-78
2021/07/11 05:12:24;;;;;;;1.55;0.75;;;;;;;;;;5035624;28;20091;-78
2021/07/11 05:14:51;;;;;;;2.10;0.80;;;;;;;;;;5034795;28;20414;-78
2021/07/11 05:17:18;;;;;;;1.85;0.80;;;;;;;;;;5035459;28;20045;-77
2021/07/11 05:19:45;;;;;;;1.83;0.80;;;;;;;;;;5035289;28;20057;-78
2021/07/11 05:22:12;;;;;;;1.63;0.60;;;;;;;;;;5035344;28;20045;-78
2021/07/11 05:24:41;;;;;;;1.27;0.70;;;;;;;;;;5034908;28;20045;-78
2021/07/11 05:27:07;;;;;;;1.58;0.70;;;;;;;;;;5035434;28;20470;-78
2021/07/11 05:29:35;;;;;;;1.60;0.80;;;;;;;;;;5035652;28;20131;-78
2021/07/11 05:32:01;;;;;;;1.30;0.60;;;;;;;;;;5035501;28;20473;-77
2021/07/11 05:34:28;;;;;;;2.78;0.93;;;;;;;;;;5036840;28;20553;-77
2021/07/11 05:36:55;;;;;;;3.08;0.93;;;;;;;;;;5035775;28;20049;-77
2021/07/11 05:39:21;;;;;;;2.42;0.90;;;;;;;;;;5036450;28;20100;-78
2021/07/11 05:41:50;;;;;;;1.90;0.70;;;;;;;;;;5036052;28;20046;-77
2021/07/11 05:44:16;;;;;;;2.10;0.80;;;;;;;;;;5037404;28;20072;-77
2021/07/11 05:46:43;;;;;;;2.08;0.80;;;;;;;;;;5034875;28;20492;-77
2021/07/11 05:49:10;;;;;;;2.30;0.82;;;;;;;;;;5035406;28;20081;-77
2021/07/11 05:51:37;;;;;;;1.73;0.80;;;;;;;;;;5036814;28;20049;-77
2021/07/11 05:54:03;;;;;;;2.50;0.80;;;;;;;;;;5035752;28;20041;-77
2021/07/11 05:56:30;;;;;;;1.42;0.70;;;;;;;;;;5035701;28;20092;-77
2021/07/11 05:58:58;;;;;;;1.08;0.60;;;;;;;;;;5036432;28;20088;-77
2021/07/11 06:01:25;;;;;;;1.40;0.70;;;;;;;;;;5023725;28;20054;-78
2021/07/11 06:03:51;;;;;;;1.15;0.60;;;;;;;;;;5016691;28;20077;-79
2021/07/11 06:06:18;;;;;;;2.30;1.00;;;;;;;;;;5019180;28;20395;-78
2021/07/11 06:08:45;;;;;;;1.63;0.60;;;;;;;;;;5022883;28;20057;-78
2021/07/11 06:11:12;;;;;;;1.67;0.70;;;;;;;;;;5026584;28;20041;-78
2021/07/11 06:13:38;;;;;;;1.23;0.60;;;;;;;;;;5040103;28;20041;-78
2021/07/11 06:16:06;;;;;;;1.23;0.70;;;;;;;;;;5039306;28;20103;-78
2021/07/11 06:18:33;;;;;;;1.38;0.73;;;;;;;;;;5039281;28;20547;-78
2021/07/11 06:21:00;;;;;;;1.65;0.80;;;;;;;;;;5039510;28;20073;-78
2021/07/11 06:23:26;;;;;;;1.60;0.63;;;;;;;;;;5039350;28;20068;-79
2021/07/11 06:25:53;;;;;;;1.15;0.70;;;;;;;;;;5038429;28;20047;-78
2021/07/11 06:28:20;;;;;;;2.03;0.85;;;;;;;;;;5041397;28;20076;-79
2021/07/11 06:30:47;;;;;;;2.25;0.80;;;;;;;;;;5042740;28;20045;-80
2021/07/11 06:33:15;;;;;;;2.67;0.73;;;;;;;;;;5043909;28;20053;-78
2021/07/11 06:35:41;;;;;;;1.52;0.73;;;;;;;;;;5039389;28;20103;-78
2021/07/11 06:38:08;;;;;;;1.85;0.70;;;;;;;;;;5036483;28;20156;-78
2021/07/11 06:40:35;;;;;;;1.77;0.70;;;;;;;;;;5038513;28;20053;-78
2021/07/11 06:43:01;;;;;;;1.83;0.70;;;;;;;;;;5038804;28;20072;-78
2021/07/11 06:45:28;;;;;;;1.42;0.60;;;;;;;;;;5041887;28;20050;-78
2021/07/11 06:47:55;;;;;;;1.42;0.75;;;;;;;;;;5056750;28;20049;-78
2021/07/11 06:50:23;;;;;;;1.75;0.80;;;;;;;;;;5059078;28;20041;-78
2021/07/11 06:52:51;;;;;;;2.05;0.80;;;;;;;;;;5059108;28;20064;-78
2021/07/11 06:55:18;;;;;;;1.75;1.00;;;;;;;;;;5057835;28;20061;-79
2021/07/11 06:57:45;;;;;;;1.27;0.65;;;;;;;;;;5057699;28;20056;-79
2021/07/11 07:00:14;;;;;;;1.80;0.70;;;;;;;;;;5057540;28;20033;-78
2021/07/11 07:02:41;;;;;;;2.33;0.90;;;;;;;;;;5058238;28;20040;-79
2021/07/11 07:05:10;;;;;;;2.72;0.90;;;;;;;;;;5057912;28;20064;-78
2021/07/11 07:07:39;;;;;;;2.70;0.80;;;;;;;;;;5055784;28;20033;-78
2021/07/11 07:10:09;;;;;;;3.55;1.10;;;;;;;;;;5058346;28;20057;-78
2021/07/11 07:12:38;;;;;;;2.13;0.85;;;;;;;;;;5043135;28;20041;-78
2021/07/11 07:15:07;;;;;;;2.35;0.90;;;;;;;;;;5038236;28;20072;-79
2021/07/11 07:17:34;;;;;;;3.22;0.95;;;;;;;;;;5038475;28;20207;-79
2021/07/11 07:20:01;;;;;;;1.88;0.70;;;;;;;;;;5038527;28;20034;-78
2021/07/11 07:22:28;;;;;;;2.33;0.90;;;;;;;;;;5038715;28;20082;-79
2021/07/11 07:24:56;;;;;;;2.38;1.02;;;;;;;;;;5038011;28;20038;-79
2021/07/11 07:27:23;;;;;;;2.13;0.80;;;;;;;;;;5038517;28;20034;-79
2021/07/11 07:29:50;;;;;;;2.08;1.00;;;;;;;;;;5038839;28;20049;-79
2021/07/11 07:32:16;;;;;;;2.35;1.02;;;;;;;;;;5038563;28;20046;-79
2021/07/11 07:34:43;;;;;;;2.05;0.85;;;;;;;;;;5037425;28;20050;-79
2021/07/11 07:37:10;;;;;;;3.65;1.38;;;;;;;;;;5037903;28;20033;-78
2021/07/11 07:39:37;;;;;;;1.60;0.70;;;;;;;;;;5038551;28;20045;-79
2021/07/11 07:42:13;;;;;;;2.30;0.95;;;;;;;;;;5038583;28;20038;-78
2021/07/11 07:44:39;;;;;;;3.15;1.10;;;;;;;;;;5037816;28;20061;-78
2021/07/11 07:47:07;;;;;;;1.98;0.90;;;;;;;;;;5038432;28;20034;-79
2021/07/11 07:49:34;;;;;;;1.88;0.95;;;;;;;;;;5037913;28;20069;-78
2021/07/11 07:52:01;;;;;;;1.90;0.88;;;;;;;;;;5037001;28;20041;-78
2021/07/11 07:54:28;;;;;;;2.17;1.08;;;;;;;;;;5030539;28;20061;-78
2021/07/11 07:56:55;;;;;;;3.13;1.33;;;;;;;;;;5014566;28;20048;-78
2021/07/11 07:59:23;;;;;;;2.67;1.10;;;;;;;;;;5015930;28;20072;-78
2021/07/11 08:01:49;;;;;;;3.67;1.40;;;;;;;;;;5015194;28;20050;-77
2021/07/11 08:04:20;;;;;;;2.70;1.30;;;;;;;;;;5015652;28;20493;-78
2021/07/11 08:06:47;;;;;;;3.35;1.30;;;;;;;;;;5015371;28;20528;-79
2021/07/11 08:09:14;;;;;;;3.63;1.25;;;;;;;;;;5015497;28;20058;-78
2021/07/11 08:11:41;;;;;;;2.70;1.15;;;;;;;;;;5015843;28;20050;-79
2021/07/11 08:14:07;;;;;;;2.70;1.10;;;;;;;;;;5015980;28;20057;-79
2021/07/11 08:16:35;;;;;;;2.85;1.20;;;;;;;;;;5015465;28;20049;-79
2021/07/11 08:19:02;;;;;;;2.47;1.25;;;;;;;;;;5016182;28;20081;-78
2021/07/11 08:21:30;;;;;;;2.55;1.27;;;;;;;;;;5014982;28;20050;-78
2021/07/11 08:23:57;;;;;;;1.70;1.05;;;;;;;;;;5014396;28;20056;-77
2021/07/11 08:26:23;;;;;;;2.85;1.30;;;;;;;;;;5013700;28;20058;-78
2021/07/11 08:28:50;;;;;;;4.15;1.60;;;;;;;;;;5016293;28;20077;-79
2021/07/11 08:31:17;;;;;;;3.97;1.60;;;;;;;;;;5014627;28;20088;-77
2021/07/11 08:33:45;;;;;;;3.42;1.30;;;;;;;;;;5015700;28;20050;-78
2021/07/11 08:36:12;;;;;;;2.13;1.25;;;;;;;;;;5017691;28;20568;-78
2021/07/11 08:38:38;;;;;;;2.67;1.50;;;;;;;;;;5025752;23;20076;-77
2021/07/11 08:41:05;;;;;;;3.20;1.20;;;;;;;;;;5013266;28;20081;-77
2021/07/11 08:43:32;;;;;;;2.28;1.35;;;;;;;;;;5012929;28;20049;-77
2021/07/11 08:45:59;;;;;;;2.15;1.13;;;;;;;;;;5012314;28;20481;-78
2021/07/11 08:48:26;;;;;;;2.53;1.40;;;;;;;;;;5012725;28;20053;-77
2021/07/11 08:51:01;;;;;;;2.58;1.00;;;;;;;;;;5013151;28;20184;-78
2021/07/11 08:53:29;;;;;;;2.65;1.33;;;;;;;;;;5012801;28;20068;-78
2021/07/11 08:55:56;;;;;;;2.50;1.30;;;;;;;;;;5012459;28;20116;-77
2021/07/11 08:58:27;;;;;;;3.03;1.40;;;;;;;;;;5013286;28;20085;-78
2021/07/11 09:00:54;;;;;;;3.30;1.50;;;;;;;;;;5012979;28;20451;-78
2021/07/11 09:03:21;;;;;;;2.67;1.40;;;;;;;;;;5013035;28;20046;-77
2021/07/11 09:05:56;;;;;;;4.50;1.60;;;;;;;;;;5012706;28;20077;-77
2021/07/11 09:08:24;;;;;;;2.65;1.17;;;;;;;;;;5013362;28;20050;-78
2021/07/11 09:10:53;;;;;;;2.88;1.42;;;;;;;;;;5012926;28;20516;-78
2021/07/11 09:13:22;;;;;;;2.50;1.33;;;;;;;;;;4993776;28;20114;-78
2021/07/11 09:15:51;;;;;;;3.67;1.60;;;;;;;;;;4993150;28;20057;-78
2021/07/11 09:18:23;;;;;;;4.60;1.53;;;;;;;;;;4992989;28;20046;-78
2021/07/11 09:20:53;;;;;;;4.00;1.60;;;;;;;;;;4992548;28;20315;-78
2021/07/11 09:23:23;;;;;;;3.25;1.60;;;;;;;;;;4994384;28;20046;-78
2021/07/11 09:25:57;;;;;;;3.47;1.50;;;;;;;;;;4996118;28;20046;-78
2021/07/11 09:28:24;;;;;;;2.85;1.40;;;;;;;;;;4996812;28;20081;-78
2021/07/11 09:31:04;;;;;;;4.47;2.20;;;;;;;;;;5001236;28;20073;-78
2021/07/11 09:33:31;;;;;;;4.35;1.65;;;;;;;;;;4995260;28;20133;-79
2021/07/11 09:36:08;;;;;;;3.28;1.55;;;;;;;;;;4994465;28;20129;-79
2021/07/11 09:38:36;;;;;;;3.67;1.80;;;;;;;;;;4995008;28;20097;-77
2021/07/11 09:41:19;;;;;;;4.47;1.98;;;;;;;;;;4995309;28;20487;-79
2021/07/11 09:43:46;;;;;;;4.57;1.90;;;;;;;;;;4995358;28;20418;-78
2021/07/11 09:46:14;;;;;;;4.28;2.30;;;;;;;;;;4994260;28;20069;-78
2021/07/11 09:48:41;;;;;;;4.57;2.35;;;;;;;;;;4994953;28;20077;-78
2021/07/11 09:51:16;;;;;;;6.50;2.60;;;;;;;;;;4995904;28;20495;-77
2021/07/11 09:53:44;;;;;;;3.78;2.08;;;;;;;;;;4996739;28;20046;-79
2021/07/11 09:56:30;;;;;;;3.60;2.10;;;;;;;;;;4996130;28;20085;-78
2021/07/11 09:58:56;;;;;;;6.40;4.35;;;;;;;;;;4995817;28;20090;-78
2021/07/11 10:01:24;;;;;;;5.35;3.17;;;;;;;;;;4995154;28;20082;-77
2021/07/11 10:03:51;;;;;;;4.50;2.85;;;;;;;;;;4995075;28;20050;-79
2021/07/11 10:06:17;;;;;;;4.72;3.45;;;;;;;;;;4994285;28;20082;-78
2021/07/11 10:08:47;;;;;;;3.80;2.40;;;;;;;;;;4995136;28;20055;-77
2021/07/11 10:11:14;;;;;;;6.97;4.27;;;;;;;;;;5003182;28;20081;-78
2021/07/11 10:13:40;;;;;;;6.18;4.13;;;;;;;;;;5020265;28;20479;-79
2021/07/11 10:16:10;;;;;;;6.55;4.28;;;;;;;;;;5018624;28;20045;-79
2021/07/11 10:18:38;;;;;;;5.57;3.35;;;;;;;;;;5017548;28;20081;-79
2021/07/11 10:21:06;;;;;;;4.15;2.25;;;;;;;;;;5020035;28;20046;-79
2021/07/11 10:23:34;;;;;;;4.38;2.67;;;;;;;;;;5018916;28;20081;-78
2021/07/11 10:26:05;;;;;;;3.90;2.20;;;;;;;;;;5017700;28;20054;-78
2021/07/11 10:28:34;;;;;;;5.22;2.42;;;;;;;;;;5019860;28;20096;-79
2021/07/11 10:31:02;;;;;;;4.03;2.40;;;;;;;;;;5020642;28;20042;-80
2021/07/11 10:33:30;;;;;;;5.70;2.85;;;;;;;;;;5021117;28;20042;-79
2021/07/11 10:35:59;;;;;;;5.65;3.50;;;;;;;;;;5024818;28;20050;-79
2021/07/11 10:38:28;;;;;;;4.13;2.30;;;;;;;;;;5026794;28;20050;-78
2021/07/11 10:40:55;;;;;;;6.47;4.25;;;;;;;;;;5028396;28;20053;-79
2021/07/11 10:43:23;;;;;;;4.55;3.05;;;;;;;;;;5024767;28;20046;-79
2021/07/11 10:45:49;;;;;;;4.25;2.50;;;;;;;;;;5021418;28;20046;-80
2021/07/11 10:48:27;;;;;;;6.70;3.42;;;;;;;;;;5020700;28;20065;-78
2021/07/11 10:50:54;;;;;;;6.35;4.40;;;;;;;;;;5022159;28;20089;-78
2021/07/11 10:53:21;;;;;;;3.92;2.80;;;;;;;;;;5020162;28;20416;-79
2021/07/11 10:55:47;;;;;;;3.83;2.60;;;;;;;;;;5019254;28;20045;-79
2021/07/11 10:58:15;;;;;;;4.20;2.97;;;;;;;;;;5021169;28;20487;-78
2021/07/11 11:00:44;;;;;;;4.85;2.47;;;;;;;;;;5013163;28;20077;-79
2021/07/11 11:03:19;;;;;;;4.63;2.85;;;;;;;;;;5002746;28;20047;-79
2021/07/11 11:05:48;;;;;;;4.00;2.40;;;;;;;;;;4997522;28;20080;-78
2021/07/11 11:08:15;;;;;;;4.40;2.50;;;;;;;;;;4997613;28;20061;-78
2021/07/11 11:10:43;;;;;;;4.65;2.65;;;;;;;;;;4999681;28;20054;-78
2021/07/11 11:13:13;;;;;;;4.07;2.30;;;;;;;;;;5019712;28;20054;-79
2021/07/11 11:15:45;;;;;;;4.53;2.50;;;;;;;;;;5021869;28;20072;-79
2021/07/11 11:18:13;;;;;;;3.75;2.50;;;;;;;;;;5023710;28;20049;-79
2021/07/11 11:20:40;;;;;;;3.40;2.38;;;;;;;;;;5023338;28;20443;-79
2021/07/11 11:23:10;;;;;;;3.58;2.20;;;;;;;;;;5023752;28;20081;-79
2021/07/11 11:25:37;;;;;;;4.57;2.97;;;;;;;;;;5021450;28;20048;-79
2021/07/11 11:28:04;;;;;;;4.55;2.75;;;;;;;;;;5023133;28;20042;-79
2021/07/11 11:30:30;;;;;;;3.78;2.20;;;;;;;;;;5021807;28;20054;-79
2021/07/11 11:33:00;;;;;;;3.80;2.40;;;;;;;;;;5022713;28;20100;-79
2021/07/11 11:35:30;;;;;;;3.90;2.50;;;;;;;;;;5022228;28;20053;-80
2021/07/11 11:37:59;;;;;;;3.88;2.60;;;;;;;;;;5023486;28;20066;-79
2021/07/11 11:40:27;;;;;;;4.15;2.58;;;;;;;;;;5022683;28;20061;-79
2021/07/11 11:42:56;;;;;;;4.45;2.70;;;;;;;;;;5017925;28;20046;-79
2021/07/11 11:45:26;;;;;;;4.50;2.75;;;;;;;;;;5018996;28;20081;-79
2021/07/11 11:48:04;;;;;;;4.60;2.67;;;;;;;;;;5019169;28;20136;-78
2021/07/11 11:50:32;;;;;;;3.90;2.35;;;;;;;;;;5014722;28;20092;-79
2021/07/11 11:53:08;;;;;;;8.85;6.57;;;;;;;;;;5012966;28;20088;-79
2021/07/11 11:55:36;;;;;;;5.18;2.90;;;;;;;;;;5018153;28;20111;-79
2021/07/11 11:58:05;;;;;;;3.60;2.40;;;;;;;;;;5019166;28;20057;-78
2021/07/11 12:00:32;;;;;;;3.05;2.08;;;;;;;;;;5013670;28;20054;-78
2021/07/11 12:03:02;;;;;;;5.40;2.83;;;;;;;;;;4999626;28;20050;-78
2021/07/11 12:05:31;;;;;;;3.80;2.25;;;;;;;;;;4999472;28;20075;-78
2021/07/11 12:07:58;;;;;;;5.35;2.65;;;;;;;;;;4999636;28;20134;-78
2021/07/11 12:10:25;;;;;;;4.78;2.65;;;;;;;;;;4999159;28;20057;-80
2021/07/11 12:12:57;;;;;;;5.22;2.72;;;;;;;;;;5016070;28;20534;-78
2021/07/11 12:15:32;;;;;;;3.67;2.20;;;;;;;;;;5017902;28;20046;-79
2021/07/11 12:18:11;;;;;;;4.18;2.85;;;;;;;;;;5019349;28;20557;-79
2021/07/11 12:20:42;;;;;;;4.35;2.38;;;;;;;;;;5018585;28;20054;-79
2021/07/11 12:23:13;;;;;;;4.55;3.17;;;;;;;;;;5018945;28;20045;-77
2021/07/11 12:25:43;;;;;;;3.85;2.53;;;;;;;;;;5018204;28;20046;-78
2021/07/11 12:28:13;;;;;;;4.10;2.30;;;;;;;;;;5018322;28;20052;-80
2021/07/11 12:30:42;;;;;;;5.15;2.45;;;;;;;;;;5018719;28;20049;-78
2021/07/11 12:33:11;;;;;;;3.50;2.22;;;;;;;;;;5018582;28;20096;-78
2021/07/11 12:35:46;;;;;;;3.20;2.10;;;;;;;;;;5017458;28;20081;-78
2021/07/11 12:38:13;;;;;;;3.65;2.38;;;;;;;;;;5018154;28;20053;-78
2021/07/11 12:40:42;;;;;;;3.50;2.40;;;;;;;;;;5017884;28;20085;-79
2021/07/11 12:43:16;;;;;;;3.95;2.45;;;;;;;;;;5018319;28;20069;-77
2021/07/11 12:45:45;;;;;;;3.60;2.30;;;;;;;;;;5018158;28;20050;-78
2021/07/11 12:48:13;;;;;;;5.03;2.60;;;;;;;;;;5019648;28;20060;-79
2021/07/11 12:50:44;;;;;;;3.58;2.15;;;;;;;;;;5020112;28;20050;-79
2021/07/11 12:53:11;;;;;;;4.63;2.50;;;;;;;;;;5020089;28;20058;-79
2021/07/11 12:55:40;;;;;;;4.28;2.50;;;;;;;;;;5019566;28;20046;-79
2021/07/11 12:58:11;;;;;;;4.28;2.67;;;;;;;;;;5022027;28;20471;-79
2021/07/11 13:00:39;;;;;;;3.53;2.40;;;;;;;;;;5017626;28;20459;-79
2021/07/11 13:03:06;;;;;;;4.05;2.38;;;;;;;;;;5004464;28;20046;-79
2021/07/11 13:05:40;;;;;;;4.82;3.22;;;;;;;;;;5003211;28;20138;-78
2021/07/11 13:08:08;;;;;;;4.18;2.30;;;;;;;;;;5005695;28;20050;-79
2021/07/11 13:10:38;;;;;;;4.28;2.25;;;;;;;;;;5004084;28;20254;-79
2021/07/11 13:13:05;;;;;;;3.85;2.15;;;;;;;;;;5020755;28;20057;-79
2021/07/11 13:15:32;;;;;;;4.13;2.47;;;;;;;;;;5018471;28;20049;-78
2021/07/11 13:17:58;;;;;;;3.38;2.28;;;;;;;;;;5019267;28;20049;-79
2021/07/11 13:20:25;;;;;;;4.07;2.70;;;;;;;;;;5018120;28;20100;-78
2021/07/11 13:22:53;;;;;;;4.10;2.40;;;;;;;;;;5018081;28;20046;-78
2021/07/11 13:25:20;;;;;;;3.90;2.50;;;;;;;;;;5019810;28;20050;-78
2021/07/11 13:27:47;;;;;;;4.15;2.30;;;;;;;;;;5020337;28;20104;-78
2021/07/11 13:30:15;;;;;;;4.43;2.10;;;;;;;;;;5020819;28;20050;-78
2021/07/11 13:32:42;;;;;;;3.90;2.40;;;;;;;;;;5021586;28;20415;-78
2021/07/11 13:35:10;;;;;;;3.83;2.50;;;;;;;;;;5020469;28;20565;-78
2021/07/11 13:37:37;;;;;;;4.35;2.30;;;;;;;;;;5020039;28;20046;-77
2021/07/11 13:40:09;;;;;;;4.00;2.33;;;;;;;;;;5021786;28;20096;-78
2021/07/11 13:42:36;;;;;;;3.65;2.30;;;;;;;;;;5018831;28;20046;-77
2021/07/11 13:45:06;;;;;;;3.92;2.80;;;;;;;;;;5018215;28;20072;-77
2021/07/11 13:47:34;;;;;;;3.72;2.28;;;;;;;;;;5016861;28;20064;-78
2021/07/11 13:50:01;;;;;;;4.63;2.47;;;;;;;;;;5017442;28;20049;-77
2021/07/11 13:52:28;;;;;;;4.20;2.45;;;;;;;;;;5016974;28;20050;-78
2021/07/11 13:54:55;;;;;;;3.00;1.80;;;;;;;;;;5016304;28;20081;-77
2021/07/11 13:57:23;;;;;;;4.25;2.50;;;;;;;;;;5018894;28;20073;-78
2021/07/11 13:59:50;;;;;;;3.53;1.92;;;;;;;;;;5017378;28;20077;-78
2021/07/11 14:02:19;;;;;;;3.75;2.17;;;;;;;;;;5000755;28;20043;-77
2021/07/11 14:04:46;;;;;;;3.27;1.83;;;;;;;;;;5000583;28;20085;-78
2021/07/11 14:07:13;;;;;;;3.42;2.20;;;;;;;;;;4996707;28;20081;-79
2021/07/11 14:09:40;;;;;;;3.53;2.03;;;;;;;;;;4997235;28;20080;-78
2021/07/11 14:12:08;;;;;;;3.05;1.65;;;;;;;;;;5007590;28;20077;-78
2021/07/11 14:14:36;;;;;;;3.15;2.00;;;;;;;;;;5019165;28;20050;-78
2021/07/11 14:17:04;;;;;;;4.35;2.00;;;;;;;;;;5018319;28;20487;-77
2021/07/11 14:19:30;;;;;;;3.33;2.20;;;;;;;;;;5016470;28;20119;-78
2021/07/11 14:21:57;;;;;;;2.78;1.70;;;;;;;;;;5015780;28;20084;-78
2021/07/11 14:24:24;;;;;;;3.92;1.90;;;;;;;;;;5017276;28;20077;-79
2021/07/11 14:26:51;;;;;;;2.60;1.58;;;;;;;;;;5016720;28;20081;-77
2021/07/11 14:29:17;;;;;;;3.35;1.90;;;;;;;;;;5015902;28;20077;-79
2021/07/11 14:31:46;;;;;;;3.20;1.75;;;;;;;;;;5015721;28;20054;-78
2021/07/11 14:34:13;;;;;;;3.13;1.80;;;;;;;;;;5014414;28;20085;-79
2021/07/11 14:36:40;;;;;;;2.80;1.70;;;;;;;;;;5018663;28;20096;-79
2021/07/11 14:39:08;;;;;;;2.10;1.30;;;;;;;;;;5069784;23;20038;-78
2021/07/11 14:41:35;;;;;;;2.95;1.20;;;;;;;;;;5038496;28;20045;-79
2021/07/11 14:44:02;;;;;;;2.28;1.15;;;;;;;;;;5027945;28;20050;-79
2021/07/11 14:46:29;;;;;;;2.42;1.40;;;;;;;;;;5022911;28;20117;-79
2021/07/11 14:48:57;;;;;;;2.10;1.20;;;;;;;;;;5023149;28;20049;-79